PROFILE

 METAR AND TAF INFORMATION
ADDS - METARS form results

(1431 UTC 22 January 2019)
http://aviationweather.gov/metar/data/
 
EGLC 221420Z AUTO 23007KT 9999 NCD 06/M01 Q1000
EGLC 221350Z AUTO 23006KT 190V260 9999 SCT031 07/M00 Q1000
TAF EGLC 221356Z 2215/2221 27009KT 9999 FEW020 TEMPO 2215/2218 6000 -SHRA BKN010 PROB30 TEMPO 2215/2218 3000 SHRA -SHRASN BKN005 PROB30 TEMPO 2218/2220 2000 -SHRASN BKN005 

 AIRPORT MAP

 RUNWAY INFORMATION
Runway 10 Runway length 4948 ft Runway width 98 ft
Runway elevation 16 ft Runway displaced threshold 358 ft Runway heading 93
Runway 28 Runway length 4948 ft Runway width 98 ft
Runway elevation 19 ft Runway displaced threshold 211 ft Runway heading 273

 AIRPORT FREQUENCIES
Type APP Name APP Frequency 132.7 MHZ
Type ATIS Name ATIS Frequency 136.35 MHZ
Type GND Name GND Frequency 121.825 MHZ
Type TWR Name TWR Frequency 118.075 MHZ

 AIRPORT NEAR NAVIGATION AIDS
Type NDB Name City Frequency 322 KHZ